Terminal Aerodrome Forecast
Issued by NWS Wilmington, NC

Home | Current Version | Previous Version | Text Only | Print | Product List | Glossary On
Versions: 1 2 3 4 5 6 7 8 9 10 11 12 13
940
FTUS42 KILM 201730
TAFLBT
TAF
KLBT 201730Z 2018/2118 VRB03KT P6SM SKC
     FM210600 00000KT 3SM BR FEW250
     FM211300 VRB04KT P6SM SCT250=

USA.gov is the U.S. government's official web portal to all federal, state and local government web resources and services.